createdAt,value
2022-12-09T00:00:36.002Z,97003.25
2022-12-09T00:04:38.368Z,97001.59
2022-12-09T00:08:40.683Z,96997.41
2022-12-09T00:12:43.068Z,96990.94
2022-12-09T00:16:45.163Z,96989.69
2022-12-09T00:20:47.452Z,96990.50
2022-12-09T00:24:49.461Z,96983.50
2022-12-09T00:28:52.452Z,96984.38
2022-12-09T00:32:54.809Z,96992.09
2022-12-09T00:36:57.062Z,96984.69
2022-12-09T00:40:59.075Z,96990.09
2022-12-09T00:45:01.292Z,96984.41
2022-12-09T00:49:04.562Z,96981.47
2022-12-09T00:53:06.628Z,96984.69
2022-12-09T00:57:08.849Z,96988.94
2022-12-09T01:01:12.452Z,96986.28
2022-12-09T01:05:14.980Z,96978.63
2022-12-09T01:09:17.897Z,96977.81
2022-12-09T01:13:20.110Z,96984.59
2022-12-09T01:17:22.712Z,96985.09
2022-12-09T01:21:25.938Z,96991.03
2022-12-09T01:25:28.384Z,96986.00
2022-12-09T01:29:30.453Z,96985.09
2022-12-09T01:33:32.751Z,96982.53
2022-12-09T01:37:36.682Z,96986.13
2022-12-09T01:41:38.855Z,96980.03
2022-12-09T01:45:42.904Z,96982.38
2022-12-09T01:49:48.231Z,96972.00
2022-12-09T01:53:51.502Z,96972.00
2022-12-09T01:57:54.939Z,96968.69
2022-12-09T02:02:00.834Z,96966.84
2022-12-09T02:06:03.253Z,96965.03
2022-12-09T02:10:11.307Z,96965.03
2022-12-09T02:14:31.519Z,96964.38
2022-12-09T02:18:52.869Z,96967.00
2022-12-09T02:23:07.507Z,96961.66
2022-12-09T02:27:32.540Z,96947.72
2022-12-09T02:31:43.683Z,96944.47
2022-12-09T02:35:58.026Z,96949.28
2022-12-09T02:40:24.950Z,96954.41
2022-12-09T02:44:27.879Z,96953.34
2022-12-09T02:48:36.363Z,96949.97
2022-12-09T02:52:42.196Z,96940.06
2022-12-09T02:56:55.084Z,96937.78
2022-12-09T03:00:58.966Z,96926.66
2022-12-09T03:05:23.994Z,96926.31
2022-12-09T03:09:35.086Z,96926.56
2022-12-09T03:13:48.109Z,96920.75
2022-12-09T03:17:53.399Z,96911.31
2022-12-09T03:22:03.381Z,96899.88
2022-12-09T03:26:06.728Z,96900.81
2022-12-09T03:30:11.146Z,96889.53
2022-12-09T03:34:18.327Z,96888.47
2022-12-09T03:38:22.854Z,96898.53
2022-12-09T03:42:36.226Z,96885.47
2022-12-09T03:46:38.747Z,96897.22
2022-12-09T03:50:52.647Z,96888.47
2022-12-09T03:55:01.695Z,96891.06
2022-12-09T03:59:07.913Z,96892.56
2022-12-09T04:03:12.883Z,96888.91
2022-12-09T04:07:15.363Z,96882.97
2022-12-09T04:11:17.721Z,96888.22
2022-12-09T04:15:20.052Z,96888.31
2022-12-09T04:19:22.150Z,96889.06
2022-12-09T04:23:24.492Z,96884.94
2022-12-09T04:27:26.867Z,96878.06
2022-12-09T04:31:29.154Z,96878.59
2022-12-09T04:35:31.250Z,96884.03
2022-12-09T04:39:33.759Z,96880.47
2022-12-09T04:43:36.397Z,96881.09
2022-12-09T04:47:38.600Z,96881.22
2022-12-09T04:51:40.990Z,96884.22
2022-12-09T04:55:43.116Z,96878.16
2022-12-09T04:59:45.824Z,96880.16
2022-12-09T05:03:50.195Z,96883.41
2022-12-09T05:07:52.600Z,96878.84
2022-12-09T05:11:58.124Z,96877.25
2022-12-09T05:16:01.960Z,96873.53
2022-12-09T05:20:05.204Z,96874.09
2022-12-09T05:24:07.797Z,96881.66
2022-12-09T05:28:10.054Z,96878.06
2022-12-09T05:32:12.501Z,96878.03
2022-12-09T05:36:17.072Z,96872.69
2022-12-09T05:40:19.476Z,96869.78
2022-12-09T05:44:23.248Z,96870.28
2022-12-09T05:48:25.673Z,96862.41
2022-12-09T05:52:27.953Z,96856.66
2022-12-09T05:56:30.979Z,96850.41
2022-12-09T06:00:33.090Z,96845.94
2022-12-09T06:04:35.327Z,96839.41
2022-12-09T06:08:38.753Z,96843.28
2022-12-09T06:12:41.694Z,96836.03
2022-12-09T06:16:44.066Z,96835.56
2022-12-09T06:20:46.643Z,96841.31
2022-12-09T06:24:52.746Z,96842.13
2022-12-09T06:28:59.787Z,96838.22
2022-12-09T06:33:02.358Z,96837.78
2022-12-09T06:37:06.925Z,96838.81
2022-12-09T06:41:11.257Z,96835.97
2022-12-09T06:45:14.042Z,96837.78
2022-12-09T06:49:16.649Z,96839.69
2022-12-09T06:53:18.859Z,96832.63
2022-12-09T06:57:21.208Z,96844.72
2022-12-09T07:01:25.458Z,96847.94
2022-12-09T07:05:28.790Z,96848.25
2022-12-09T07:09:31.032Z,96842.69
2022-12-09T07:13:33.240Z,96842.31
2022-12-09T07:17:35.432Z,96846.03
2022-12-09T07:21:38.358Z,96846.56
2022-12-09T07:25:40.743Z,96847.50
2022-12-09T07:29:43.294Z,96845.56
2022-12-09T07:33:45.537Z,96856.38
2022-12-09T07:37:48.159Z,96851.75
2022-12-09T07:41:55.720Z,96853.59
2022-12-09T07:45:58.118Z,96851.69
2022-12-09T07:50:06.196Z,96844.47
2022-12-09T07:54:17.117Z,96844.50
2022-12-09T07:58:19.272Z,96843.25
2022-12-09T08:02:21.483Z,96847.44
2022-12-09T08:06:26.224Z,96853.22
2022-12-09T08:10:29.149Z,96845.13
2022-12-09T08:14:31.600Z,96839.47
2022-12-09T08:18:34.954Z,96849.19
2022-12-09T08:22:37.691Z,96845.34
2022-12-09T08:26:41.143Z,96852.44
2022-12-09T08:30:43.569Z,96846.75
2022-12-09T08:34:46.062Z,96842.69
2022-12-09T08:38:48.788Z,96840.13
2022-12-09T08:42:51.302Z,96838.31
2022-12-09T08:46:53.777Z,96829.75
2022-12-09T08:50:56.170Z,96831.38
2022-12-09T08:54:58.540Z,96831.91
2022-12-09T08:59:00.794Z,96832.78
2022-12-09T09:03:03.171Z,96829.94
2022-12-09T09:07:05.901Z,96833.03
2022-12-09T09:11:14.274Z,96839.25
2022-12-09T09:15:17.528Z,96831.16
2022-12-09T09:19:22.661Z,96833.41
2022-12-09T09:23:26.223Z,96826.03
2022-12-09T09:27:28.500Z,96829.94
2022-12-09T09:31:30.596Z,96836.16
2022-12-09T09:35:33.620Z,96828.53
2022-12-09T09:39:35.655Z,96820.41
2022-12-09T09:43:39.004Z,96831.66
2022-12-09T09:47:46.282Z,96820.41
2022-12-09T09:51:49.241Z,96806.25
2022-12-09T09:56:07.801Z,96799.94
2022-12-09T10:00:32.658Z,96798.56
2022-12-09T10:05:04.894Z,96802.31
2022-12-09T10:09:32.141Z,96801.31
2022-12-09T10:14:09.984Z,96802.84
2022-12-09T10:18:40.436Z,96796.16
2022-12-09T10:22:52.267Z,96796.22
2022-12-09T10:27:06.350Z,96797.97
2022-12-09T10:31:11.093Z,96782.22
2022-12-09T10:35:28.078Z,96791.44
2022-12-09T10:39:31.117Z,96787.22
2022-12-09T10:43:39.561Z,96781.16
2022-12-09T10:47:49.904Z,96784.06
2022-12-09T10:51:54.092Z,96789.25
2022-12-09T10:55:58.883Z,96791.78
2022-12-09T11:00:19.839Z,96790.94
2022-12-09T11:04:40.487Z,96779.34
2022-12-09T11:08:50.512Z,96775.38
2022-12-09T11:12:56.035Z,96772.56
2022-12-09T11:17:41.486Z,96776.59
2022-12-09T11:21:43.859Z,96768.69
2022-12-09T11:25:57.755Z,96766.22
2022-12-09T11:30:14.311Z,96763.25
2022-12-09T11:34:27.334Z,96760.00
2022-12-09T11:38:46.219Z,96760.28
2022-12-09T11:42:53.585Z,96761.06
2022-12-09T11:47:11.259Z,96755.34
2022-12-09T11:51:35.215Z,96752.31
2022-12-09T11:55:51.912Z,96754.88
2022-12-09T11:59:59.742Z,96755.34
2022-12-09T12:04:07.756Z,96744.19
2022-12-09T12:08:25.688Z,96747.69
2022-12-09T12:12:34.859Z,96744.22
2022-12-09T12:16:52.486Z,96750.59
2022-12-09T12:21:15.870Z,96751.47
2022-12-09T12:25:36.122Z,96744.44
2022-12-09T12:29:58.452Z,96749.03
2022-12-09T12:34:28.278Z,96749.16
2022-12-09T12:38:37.083Z,96738.72
2022-12-09T12:43:11.241Z,96740.03
2022-12-09T12:47:25.520Z,96739.19
2022-12-09T12:51:54.757Z,96744.56
2022-12-09T12:56:14.649Z,96738.81
2022-12-09T13:00:23.963Z,96741.28
2022-12-09T13:04:48.967Z,96740.03
2022-12-09T13:09:03.088Z,96737.81
2022-12-09T13:13:17.383Z,96734.25
2022-12-09T13:17:25.298Z,96736.09
2022-12-09T13:21:27.348Z,96728.38
2022-12-09T13:25:39.029Z,96723.00
2022-12-09T13:29:54.555Z,96723.75
2022-12-09T13:34:18.246Z,96723.41
2022-12-09T13:38:36.345Z,96725.88
2022-12-09T13:43:09.232Z,96721.50
2022-12-09T13:47:24.365Z,96716.97
2022-12-09T13:51:27.493Z,96719.22
2022-12-09T13:55:35.562Z,96730.28
2022-12-09T13:59:44.490Z,96736.31
2022-12-09T14:04:01.426Z,96729.03
2022-12-09T14:08:16.246Z,96728.09
2022-12-09T14:12:28.168Z,96733.28
2022-12-09T14:16:30.143Z,96738.75
2022-12-09T14:20:36.231Z,96748.47
2022-12-09T14:24:38.629Z,96753.69
2022-12-09T14:28:52.166Z,96759.09
2022-12-09T14:32:55.714Z,96752.28
2022-12-09T14:37:32.953Z,96751.91
2022-12-09T14:41:44.656Z,96754.13
2022-12-09T14:46:06.464Z,96749.16
2022-12-09T14:50:15.520Z,96755.66
2022-12-09T14:54:23.713Z,96762.53
2022-12-09T14:58:27.456Z,96763.50
2022-12-09T15:02:31.758Z,96762.56
2022-12-09T15:06:34.886Z,96775.50
2022-12-09T15:10:38.311Z,96777.41
2022-12-09T15:14:41.635Z,96767.38
2022-12-09T15:18:45.706Z,96765.78
2022-12-09T15:22:53.188Z,96766.63
2022-12-09T15:26:58.778Z,96770.16
2022-12-09T15:31:03.911Z,96768.22
2022-12-09T15:35:17.959Z,96774.25
2022-12-09T15:39:25.670Z,96776.19
2022-12-09T15:43:28.120Z,96794.34
2022-12-09T15:47:35.828Z,96788.22
2022-12-09T15:51:39.125Z,96795.44
2022-12-09T15:55:50.399Z,96792.00
2022-12-09T15:59:57.977Z,96794.66
2022-12-09T16:04:01.645Z,96795.66
2022-12-09T16:08:03.795Z,96799.94
2022-12-09T16:12:24.902Z,96798.09
2022-12-09T16:16:51.304Z,96811.00
2022-12-09T16:21:24.796Z,96802.53
2022-12-09T16:25:29.790Z,96799.16
2022-12-09T16:29:35.418Z,96813.00
2022-12-09T16:33:39.449Z,96811.38
2022-12-09T16:38:16.004Z,96806.19
2022-12-09T16:42:40.750Z,96797.59
2022-12-09T16:46:43.832Z,96812.25
2022-12-09T16:50:57.035Z,96813.25
2022-12-09T16:54:59.448Z,96804.75
2022-12-09T16:59:01.482Z,96806.59
2022-12-09T17:03:09.196Z,96810.88
2022-12-09T17:07:11.356Z,96809.41
2022-12-09T17:11:14.550Z,96806.34
2022-12-09T17:15:19.108Z,96799.84
2022-12-09T17:19:23.959Z,96804.31
2022-12-09T17:23:25.958Z,96807.09
2022-12-09T17:27:28.021Z,96808.13
2022-12-09T17:31:30.294Z,96811.81
2022-12-09T17:35:37.811Z,96807.66
2022-12-09T17:39:39.759Z,96818.06
2022-12-09T17:43:42.983Z,96820.66
2022-12-09T17:47:44.959Z,96819.94
2022-12-09T17:51:47.399Z,96821.78
2022-12-09T17:55:49.426Z,96828.81
2022-12-09T17:59:51.437Z,96832.28
2022-12-09T18:04:02.621Z,96840.66
2022-12-09T18:08:08.440Z,96848.09
2022-12-09T18:12:10.488Z,96854.66
2022-12-09T18:16:13.350Z,96845.91
2022-12-09T18:20:15.459Z,96849.13
2022-12-09T18:24:18.211Z,96847.09
2022-12-09T18:28:20.374Z,96853.88
2022-12-09T18:32:22.446Z,96840.97
2022-12-09T18:36:27.565Z,96845.22
2022-12-09T18:40:29.593Z,96848.53
2022-12-09T18:44:31.578Z,96857.94
2022-12-09T18:48:33.586Z,96863.81
2022-12-09T18:52:36.836Z,96856.13
2022-12-09T18:56:38.829Z,96853.53
2022-12-09T19:00:40.859Z,96863.81
2022-12-09T19:04:42.992Z,96862.38
2022-12-09T19:08:45.039Z,96858.75
2022-12-09T19:12:49.740Z,96859.44
2022-12-09T19:16:54.008Z,96859.50
2022-12-09T19:20:56.012Z,96865.22
2022-12-09T19:24:58.070Z,96879.59
2022-12-09T19:29:07.658Z,96883.78
2022-12-09T19:33:09.736Z,96889.03
2022-12-09T19:37:12.512Z,96881.16
2022-12-09T19:41:14.557Z,96882.88
2022-12-09T19:45:16.683Z,96874.06
2022-12-09T19:49:20.272Z,96874.75
2022-12-09T19:53:22.280Z,96873.72
2022-12-09T19:57:24.269Z,96873.50
2022-12-09T20:01:29.049Z,96881.09
2022-12-09T20:05:31.082Z,96881.00
2022-12-09T20:09:33.105Z,96886.13
2022-12-09T20:13:35.247Z,96887.16
2022-12-09T20:17:37.243Z,96883.81
2022-12-09T20:21:40.418Z,96887.34
2022-12-09T20:25:42.490Z,96886.19
2022-12-09T20:29:44.474Z,96883.78
2022-12-09T20:33:47.524Z,96886.88
2022-12-09T20:37:49.616Z,96887.31
2022-12-09T20:41:51.703Z,96889.91
2022-12-09T20:45:53.759Z,96888.88
2022-12-09T20:49:55.823Z,96889.69
2022-12-09T20:53:58.553Z,96888.69
2022-12-09T20:58:00.659Z,96889.28
2022-12-09T21:02:02.767Z,96899.47
2022-12-09T21:06:05.428Z,96902.94
2022-12-09T21:10:08.004Z,96896.16
2022-12-09T21:14:11.448Z,96899.63
2022-12-09T21:18:13.486Z,96893.38
2022-12-09T21:22:15.525Z,96900.25
2022-12-09T21:26:18.814Z,96890.63
2022-12-09T21:30:20.924Z,96891.47
2022-12-09T21:34:24.563Z,96891.09
2022-12-09T21:38:26.779Z,96893.91
2022-12-09T21:42:28.884Z,96898.88
2022-12-09T21:46:33.803Z,96894.28
2022-12-09T21:50:35.810Z,96897.50
2022-12-09T21:54:38.193Z,96902.47
2022-12-09T21:58:40.180Z,96911.75
2022-12-09T22:02:44.174Z,96911.69
2022-12-09T22:06:48.593Z,96910.84
2022-12-09T22:10:50.559Z,96914.53
2022-12-09T22:14:52.563Z,96919.06
2022-12-09T22:18:57.103Z,96923.72
2022-12-09T22:22:59.254Z,96924.34
2022-12-09T22:27:01.319Z,96922.59
2022-12-09T22:31:21.782Z,96930.53
2022-12-09T22:35:23.763Z,96938.41
2022-12-09T22:39:25.806Z,96946.19
2022-12-09T22:43:31.456Z,96942.94
2022-12-09T22:47:37.046Z,96952.50
2022-12-09T22:51:39.723Z,96955.97
2022-12-09T22:55:47.897Z,96951.72
2022-12-09T22:59:49.896Z,96943.13
2022-12-09T23:03:53.569Z,96944.13
2022-12-09T23:07:55.594Z,96959.00
2022-12-09T23:11:57.704Z,96959.09
2022-12-09T23:16:01.192Z,96961.84
2022-12-09T23:20:03.430Z,96952.34
2022-12-09T23:24:10.280Z,96948.19
2022-12-09T23:28:12.290Z,96945.47
2022-12-09T23:32:14.282Z,96946.16
2022-12-09T23:36:22.764Z,96950.41
2022-12-09T23:40:24.809Z,96946.16
2022-12-09T23:44:26.816Z,96947.25
2022-12-09T23:48:29.044Z,96953.34
2022-12-09T23:52:31.056Z,96948.22
2022-12-09T23:56:38.408Z,96949.88
